This is the latest recevied weather packets stored in our database for station/object KJ7BRE-1. If no packets are shown the sender has not sent any weather packets the latest 10 day(s).
| Time | Temp. | Humidity | Pressure | Rain* | Wind** | Luminosity | Snow |
|---|---|---|---|---|---|---|---|
| 1787694850 | 30° C | 37% | 1013.5 hPa | 0 mm | - | - | - |
| 1787694546 | 30° C | 38% | 1013.9 hPa | 0 mm | - | - | - |
| 1787693933 | 29.44° C | 41% | 1013.5 hPa | 0 mm | - | - | - |
| 1787693627 | 28.89° C | 41% | 1013.9 hPa | 0 mm | - | - | - |
| 1787693323 | 28.89° C | 42% | 1013.9 hPa | 0 mm | - | - | - |
| 1787693020 | 28.89° C | 41% | 1013.9 hPa | 0 mm | - | - | - |
| 1787692712 | 29.44° C | 41% | 1013.5 hPa | 0 mm | - | - | - |
| 1787692411 | 30° C | 41% | 1013.5 hPa | 0 mm | - | - | - |
| 1787692109 | 29.44° C | 42% | 1013.9 hPa | 0 mm | - | - | - |
| 1787691808 | 28.89° C | 43% | 1013.9 hPa | 0 mm | - | - | - |
| 1787691197 | 28.89° C | 43% | 1013.9 hPa | 0 mm | - | - | - |
| 1787690896 | 28.33° C | 44% | 1013.9 hPa | 0 mm | - | - | - |
| 1787690594 | 27.78° C | 46% | 1013.9 hPa | 0 mm | - | - | - |
| 1787690288 | 28.33° C | 45% | 1013.9 hPa | 0 mm | - | - | - |
| 1787689987 | 27.78° C | 46% | 1014.2 hPa | 0 mm | - | - | - |
| 1787689686 | 28.33° C | 44% | 1014.2 hPa | 0 mm | - | - | - |
| 1787689072 | 27.78° C | 47% | 1013.9 hPa | 0 mm | - | - | - |
| 1787688768 | 27.22° C | 47% | 1013.9 hPa | 0 mm | - | - | - |
| 1787688459 | 27.78° C | 46% | 1013.9 hPa | 0 mm | - | - | - |
| 1787688154 | 27.78° C | 46% | 1013.9 hPa | 0 mm | - | - | - |
| 1787687853 | 28.33° C | 45% | 1013.9 hPa | 0 mm | - | - | - |
| 1787687551 | 27.78° C | 45% | 1014.2 hPa | 0 mm | - | - | - |
| 1787687250 | 27.78° C | 45% | 1013.9 hPa | 0 mm | - | - | - |
| 1787686949 | 27.22° C | 46% | 1013.9 hPa | 0 mm | - | - | - |
| 1787686647 | 27.22° C | 46% | 1013.9 hPa | 0 mm | - | - | - |
* Rain latest hour (hover to see other rain measurements)
** Current wind speed in m/s (hover to see current wind gust speed)